Time;durP1;ratioP1;P1;durP2;ratioP2;P2;SDS_P1;SDS_P2;PMS_P1;PMS_P2;Temp;Humidity;BMP_temperature;BMP_pressure;BME280_temperature;BME280_humidity;BME280_pressure;Samples;Min_cycle;Max_cycle;Signal;HPM_P1;HPM_P2
2023/04/19 00:00:43;;;;;;;6.20;4.73;;;12.30;99.90;;;12.36;nan;101359.97;4992512;28;21185;-66
2023/04/19 00:03:10;;;;;;;7.13;3.63;;;12.20;99.90;;;12.35;nan;101366.13;4998504;28;21066;-66
2023/04/19 00:05:38;;;;;;;4.80;3.83;;;12.20;99.90;;;12.34;nan;101364.47;5000632;28;20723;-66
2023/04/19 00:08:05;;;;;;;5.10;4.50;;;12.20;99.90;;;12.32;nan;101365.53;4989063;28;20652;-66
2023/04/19 00:10:34;;;;;;;2.73;2.53;;;12.20;99.90;;;12.30;nan;101352.56;4997660;28;20630;-65
2023/04/19 00:13:02;;;;;;;4.70;4.20;;;12.20;99.90;;;12.29;nan;101350.00;5003952;28;21059;-66
2023/04/19 00:15:28;;;;;;;3.07;2.77;;;12.20;99.90;;;12.25;nan;101357.25;5007034;28;20670;-66
2023/04/19 00:17:55;;;;;;;4.87;4.30;;;12.10;99.90;;;12.25;nan;101352.00;4998296;28;20716;-66
2023/04/19 00:20:22;;;;;;;8.53;4.87;;;12.10;99.90;;;12.25;nan;101345.94;5005653;28;20638;-66
2023/04/19 00:22:49;;;;;;;4.50;4.10;;;12.10;99.90;;;12.22;nan;101352.19;5017294;28;20637;-66
2023/04/19 00:25:16;;;;;;;4.23;3.50;;;12.10;99.90;;;12.25;nan;101343.31;5005585;28;20658;-66
2023/04/19 00:27:43;;;;;;;5.30;4.80;;;12.10;99.90;;;12.20;nan;101346.25;5000506;28;20635;-66
2023/04/19 00:30:11;;;;;;;5.37;4.30;;;12.10;99.90;;;12.19;nan;101339.34;5010295;28;20642;-66
2023/04/19 00:32:38;;;;;;;5.57;4.10;;;12.00;99.90;;;12.19;nan;101341.13;5020766;28;21220;-66
2023/04/19 00:35:05;;;;;;;5.87;4.67;;;12.00;99.90;;;12.19;nan;101338.50;5009219;28;20780;-66
2023/04/19 00:37:32;;;;;;;5.10;4.70;;;12.00;99.90;;;12.19;nan;101344.56;5002263;28;21267;-66
2023/04/19 00:39:59;;;;;;;3.37;3.07;;;12.00;99.90;;;12.18;nan;101342.06;4991206;28;21365;-66
2023/04/19 00:42:26;;;;;;;2.33;2.07;;;12.00;99.90;;;12.14;nan;101335.34;4992437;28;20631;-65
2023/04/19 00:44:53;;;;;;;4.30;3.47;;;12.10;99.90;;;12.15;nan;101340.50;5000814;28;20700;-66
2023/04/19 00:47:20;;;;;;;3.90;3.20;;;12.00;99.90;;;12.11;nan;101340.81;4993054;28;21176;-65
2023/04/19 00:49:47;;;;;;;4.50;3.63;;;12.00;99.90;;;12.07;nan;101329.72;4995313;28;20650;-64
2023/04/19 00:52:14;;;;;;;3.63;2.93;;;12.00;99.90;;;12.07;nan;101334.09;5007816;28;20644;-65
2023/04/19 00:54:43;;;;;;;4.70;4.30;;;11.90;99.90;;;12.07;nan;101332.34;5028207;28;21031;-66
2023/04/19 00:57:11;;;;;;;5.53;4.10;;;11.90;99.90;;;12.08;nan;101331.38;4997601;28;20677;-65
2023/04/19 00:59:38;;;;;;;2.13;1.93;;;11.90;99.90;;;12.10;nan;101337.34;5005278;28;21011;-66
2023/04/19 01:02:06;;;;;;;4.90;3.90;;;11.90;99.90;;;12.07;nan;101334.94;4989791;28;21058;-66
2023/04/19 01:04:33;;;;;;;3.93;3.60;;;11.90;99.90;;;12.06;nan;101337.66;5003653;28;21268;-66
2023/04/19 01:07:01;;;;;;;3.43;2.73;;;11.90;99.90;;;12.07;nan;101336.72;5007539;28;20641;-65
2023/04/19 01:09:28;;;;;;;4.43;4.00;;;11.90;99.90;;;12.06;nan;101335.88;5009537;28;20672;-66
2023/04/19 01:11:55;;;;;;;4.00;3.60;;;11.90;99.90;;;12.05;nan;101326.34;4994132;28;20646;-66
2023/04/19 01:14:22;;;;;;;2.40;2.20;;;11.90;99.90;;;12.07;nan;101328.88;5009944;28;20698;-66
2023/04/19 01:16:50;;;;;;;5.03;4.43;;;11.90;99.90;;;12.04;nan;101326.44;4993257;28;21041;-64
2023/04/19 01:19:17;;;;;;;4.30;3.90;;;11.90;99.90;;;12.00;nan;101328.44;4993928;28;20630;-66
2023/04/19 01:21:45;;;;;;;4.87;4.30;;;11.90;99.90;;;12.01;nan;101319.63;4999079;28;21054;-66
2023/04/19 01:24:12;;;;;;;3.77;2.90;;;11.80;99.90;;;12.02;nan;101317.88;4998898;28;20665;-66
2023/04/19 01:26:39;;;;;;;3.80;3.00;;;11.90;99.90;;;12.03;nan;101323.00;4992169;28;20631;-66
2023/04/19 01:29:06;;;;;;;5.17;3.00;;;11.90;99.90;;;12.01;nan;101308.38;4987635;28;21046;-66
2023/04/19 01:31:33;;;;;;;2.80;2.60;;;11.90;99.90;;;12.02;nan;101316.09;5023162;28;20628;-66
2023/04/19 01:34:00;;;;;;;4.97;4.43;;;11.90;99.90;;;12.00;nan;101306.66;5033202;28;20648;-66
2023/04/19 01:36:27;;;;;;;5.27;3.87;;;11.80;99.90;;;11.99;nan;101313.69;5005177;28;20652;-66
2023/04/19 01:38:56;;;;;;;4.40;4.00;;;11.80;99.90;;;11.99;nan;101307.63;5011203;28;20633;-66
2023/04/19 01:41:25;;;;;;;2.30;1.67;;;11.80;99.90;;;11.99;nan;101305.00;5012745;28;20617;-66
2023/04/19 01:43:52;;;;;;;4.40;3.83;;;11.90;99.90;;;11.98;nan;101301.56;5012483;28;21037;-66
2023/04/19 01:46:20;;;;;;;4.10;3.47;;;11.80;99.90;;;11.98;nan;101304.16;5014117;28;20679;-66
2023/04/19 01:48:46;;;;;;;2.00;1.67;;;11.90;99.90;;;11.99;nan;101297.16;5012279;28;20608;-67
2023/04/19 01:51:16;;;;;;;2.97;2.67;;;11.90;99.90;;;12.00;nan;101297.06;5013561;28;20629;-66
2023/04/19 01:53:43;;;;;;;5.23;3.30;;;11.90;99.90;;;12.02;nan;101292.56;5013433;28;20644;-66
2023/04/19 01:56:10;;;;;;;3.70;3.40;;;11.90;99.90;;;11.99;nan;101289.31;5007866;28;20692;-66
2023/04/19 01:58:36;;;;;;;0.47;0.47;;;11.80;99.90;;;12.00;nan;101285.75;4993994;28;20669;-67
2023/04/19 02:01:04;;;;;;;4.90;3.33;;;11.80;99.90;;;11.98;nan;101293.72;5018162;28;21062;-66
2023/04/19 02:03:31;;;;;;;4.13;3.80;;;11.80;99.90;;;11.92;nan;101283.66;4999522;28;21103;-67
2023/04/19 02:05:58;;;;;;;3.50;3.20;;;11.80;99.90;;;11.90;nan;101285.53;5054687;22;20685;-65
2023/04/19 02:08:26;;;;;;;5.67;4.10;;;11.70;99.90;;;11.94;nan;101281.78;5032452;28;21168;-66
2023/04/19 02:10:53;;;;;;;5.60;4.10;;;11.80;99.90;;;11.92;nan;101282.81;5032951;28;20640;-65
2023/04/19 02:13:20;;;;;;;4.83;3.80;;;11.80;99.90;;;11.91;nan;101281.97;5033503;28;20642;-66
2023/04/19 02:15:48;;;;;;;1.93;1.73;;;11.70;99.90;;;11.92;nan;101273.19;5020410;28;20661;-66
2023/04/19 02:18:16;;;;;;;2.77;2.57;;;11.80;99.90;;;11.94;nan;101276.56;5012698;28;20663;-66
2023/04/19 02:20:43;;;;;;;4.40;4.00;;;11.80;99.90;;;11.93;nan;101272.25;5012733;28;20625;-67
2023/04/19 02:23:10;;;;;;;2.80;2.37;;;11.80;99.90;;;11.92;nan;101273.19;5003770;28;21201;-66
2023/04/19 02:25:37;;;;;;;6.27;4.33;;;11.80;99.90;;;11.98;nan;101269.31;5011599;28;20657;-66
2023/04/19 02:28:04;;;;;;;1.53;1.23;;;11.80;99.90;;;11.98;nan;101274.56;5013875;28;21003;-66
2023/04/19 02:30:31;;;;;;;4.63;3.60;;;11.80;99.90;;;11.95;nan;101280.81;5013302;28;20637;-68
2023/04/19 02:32:58;;;;;;;4.20;3.77;;;11.80;99.90;;;11.94;nan;101273.94;5012307;28;20642;-65
2023/04/19 02:35:25;;;;;;;3.67;3.37;;;11.80;99.90;;;11.93;nan;101264.41;5004370;28;21280;-66
2023/04/19 02:37:52;;;;;;;3.73;3.23;;;11.80;99.90;;;11.93;nan;101272.25;5014301;28;20659;-66
2023/04/19 02:40:21;;;;;;;5.47;4.10;;;11.80;99.90;;;11.91;nan;101258.44;5013465;28;20633;-64
2023/04/19 02:42:48;;;;;;;7.00;3.67;;;11.80;99.90;;;11.89;nan;101267.31;5012618;28;20632;-63
2023/04/19 02:45:15;;;;;;;4.70;3.40;;;11.70;99.90;;;11.88;nan;101266.50;5013418;28;20795;-64
2023/04/19 02:47:42;;;;;;;4.77;3.70;;;11.70;99.90;;;11.87;nan;101261.34;5012241;28;20721;-66
2023/04/19 02:50:10;;;;;;;4.70;4.07;;;11.70;99.90;;;11.87;nan;101259.59;5009638;28;20702;-66
2023/04/19 02:52:38;;;;;;;2.70;2.50;;;11.70;99.90;;;11.86;nan;101255.28;5001142;28;20631;-66
2023/04/19 02:55:06;;;;;;;5.73;4.40;;;11.70;99.90;;;11.87;nan;101262.22;4998629;28;20657;-64
2023/04/19 02:57:33;;;;;;;4.87;3.67;;;11.70;99.90;;;11.89;nan;101265.56;5008113;28;20674;-66
2023/04/19 03:00:00;;;;;;;4.40;3.27;;;11.70;99.90;;;11.86;nan;101262.31;5006287;28;20668;-67
2023/04/19 03:02:27;;;;;;;3.13;2.80;;;11.70;99.90;;;11.87;nan;101270.06;5010684;28;20641;-66
2023/04/19 03:04:54;;;;;;;4.80;3.37;;;11.70;99.90;;;11.90;nan;101259.41;5006366;28;20669;-64
2023/04/19 03:07:22;;;;;;;4.10;3.43;;;11.70;99.90;;;11.93;nan;101266.16;5005527;28;20637;-64
2023/04/19 03:09:49;;;;;;;2.97;2.77;;;11.80;99.90;;;11.96;nan;101261.59;5011445;28;20641;-66
2023/04/19 03:12:16;;;;;;;5.00;3.17;;;11.80;99.90;;;11.98;nan;101261.47;5011847;28;20640;-66
2023/04/19 03:14:43;;;;;;;3.80;3.47;;;11.80;99.90;;;11.99;nan;101256.13;5011362;28;21060;-66
2023/04/19 03:17:10;;;;;;;6.43;3.90;;;11.80;99.90;;;11.96;nan;101250.28;5013232;28;20669;-66
2023/04/19 03:19:37;;;;;;;4.30;3.90;;;11.80;99.90;;;11.96;nan;101245.91;5010376;28;22811;-66
2023/04/19 03:22:04;;;;;;;4.37;3.97;;;11.90;99.90;;;11.92;nan;101251.44;5006605;28;20630;-65
2023/04/19 03:24:32;;;;;;;4.50;4.10;;;11.80;99.90;;;11.89;nan;101251.63;5002406;28;20669;-66
2023/04/19 03:27:02;;;;;;;3.63;3.33;;;11.70;99.90;;;11.89;nan;101247.25;5011494;28;20629;-67
2023/04/19 03:29:29;;;;;;;4.93;4.40;;;11.70;99.90;;;11.88;nan;101245.59;5011886;28;20674;-66
2023/04/19 03:31:56;;;;;;;4.83;3.87;;;11.70;99.90;;;11.86;nan;101246.63;5011689;28;20723;-66
2023/04/19 03:34:23;;;;;;;5.37;4.53;;;11.70;99.90;;;11.79;nan;101246.19;5009474;28;20659;-64
2023/04/19 03:36:50;;;;;;;5.87;4.83;;;11.70;99.90;;;11.80;nan;101239.19;5005759;28;20633;-64
2023/04/19 03:39:17;;;;;;;4.50;3.97;;;11.70;99.90;;;11.73;nan;101240.53;4997567;28;20637;-65
2023/04/19 03:41:44;;;;;;;9.83;5.23;;;11.60;99.90;;;11.70;nan;101241.59;5006351;28;20633;-66
2023/04/19 03:44:13;;;;;;;5.40;3.87;;;11.60;99.90;;;11.68;nan;101235.63;5011786;28;20618;-68
2023/04/19 03:46:40;;;;;;;8.73;3.97;;;11.60;99.90;;;11.68;nan;101233.00;5011012;28;20629;-66
2023/04/19 03:49:08;;;;;;;5.47;4.20;;;11.50;99.90;;;11.67;nan;101231.31;5010967;28;20641;-66
2023/04/19 03:51:35;;;;;;;7.30;4.37;;;11.50;99.90;;;11.68;nan;101227.78;5010474;28;20644;-68
2023/04/19 03:54:02;;;;;;;5.20;4.23;;;11.50;99.90;;;11.71;nan;101224.13;5010910;28;21049;-66
2023/04/19 03:56:30;;;;;;;4.00;3.40;;;11.60;99.90;;;11.74;nan;101222.13;5010275;28;21193;-67
2023/04/19 03:59:00;;;;;;;6.50;3.80;;;11.60;99.90;;;11.77;nan;101221.94;5011042;28;20677;-68
2023/04/19 04:01:27;;;;;;;3.37;3.10;;;11.60;99.90;;;11.79;nan;101219.22;5010711;28;20632;-66
2023/04/19 04:03:54;;;;;;;7.00;4.43;;;11.60;99.90;;;11.79;nan;101227.91;5009823;28;20633;-66
2023/04/19 04:06:22;;;;;;;5.20;3.80;;;11.60;99.90;;;11.81;nan;101228.63;5003013;28;20676;-67
2023/04/19 04:08:49;;;;;;;4.87;4.37;;;11.60;99.90;;;11.83;nan;101231.97;5010511;28;20637;-69
2023/04/19 04:11:19;;;;;;;6.33;3.90;;;11.70;99.90;;;11.80;nan;101224.31;5009528;28;21014;-68
2023/04/19 04:13:47;;;;;;;7.20;4.57;;;11.70;99.90;;;11.79;nan;101230.50;5003749;28;20649;-67
2023/04/19 04:16:17;;;;;;;5.70;4.47;;;11.60;99.90;;;11.76;nan;101233.31;5010040;28;20661;-66
2023/04/19 04:18:44;;;;;;;6.67;4.53;;;11.60;99.90;;;11.74;nan;101232.59;5010232;28;20669;-66
2023/04/19 04:21:11;;;;;;;6.13;4.57;;;11.60;99.90;;;11.72;nan;101231.00;5011045;28;20633;-66
2023/04/19 04:23:38;;;;;;;4.77;4.37;;;11.60;99.90;;;11.69;nan;101238.13;5009943;28;21049;-67
2023/04/19 04:26:08;;;;;;;4.63;4.13;;;11.60;99.90;;;11.63;nan;101235.03;5011008;28;20661;-66
2023/04/19 04:28:35;;;;;;;5.30;4.13;;;11.50;99.90;;;11.58;nan;101240.56;5002202;28;20701;-66
2023/04/19 04:31:02;;;;;;;5.37;4.57;;;11.40;99.90;;;11.54;nan;101233.88;5002359;28;20633;-66
2023/04/19 04:33:29;;;;;;;4.93;4.30;;;11.40;99.90;;;11.51;nan;101230.66;5010031;28;20637;-66
2023/04/19 04:35:57;;;;;;;7.20;5.00;;;11.40;99.90;;;11.45;nan;101237.13;5011389;28;20661;-66
2023/04/19 04:38:25;;;;;;;5.93;4.30;;;11.30;99.90;;;11.41;nan;101240.88;5009988;28;20649;-66
2023/04/19 04:40:54;;;;;;;8.00;5.40;;;11.30;99.90;;;11.36;nan;101240.34;5007878;28;20629;-67
2023/04/19 04:43:23;;;;;;;6.43;5.40;;;11.20;99.90;;;11.33;nan;101243.13;5005646;28;20639;-66
2023/04/19 04:45:54;;;;;;;7.70;4.97;;;11.20;99.90;;;11.35;nan;101235.22;4992757;28;21023;-66
2023/04/19 04:48:35;;;;;;;6.33;5.30;;;11.20;99.90;;;11.35;nan;101243.06;5005748;28;20688;-67
2023/04/19 04:51:02;;;;;;;12.50;5.50;;;11.20;99.90;;;11.34;nan;101239.59;5011177;28;20644;-65
2023/04/19 04:53:29;;;;;;;7.57;5.10;;;11.20;99.90;;;11.38;nan;101233.22;5010405;28;20621;-66
2023/04/19 04:55:56;;;;;;;5.97;4.80;;;11.20;99.90;;;11.38;nan;101243.69;5010402;28;21079;-66
2023/04/19 04:58:23;;;;;;;5.90;4.90;;;11.20;99.90;;;11.40;nan;101241.81;5011553;28;20657;-65
2023/04/19 05:00:50;;;;;;;7.67;5.20;;;11.20;99.90;;;11.40;nan;101243.56;5005493;28;20638;-64
2023/04/19 05:03:17;;;;;;;6.40;4.70;;;11.30;99.90;;;11.40;nan;101243.56;5009446;28;20637;-66
2023/04/19 05:05:44;;;;;;;6.97;4.17;;;11.30;99.90;;;11.44;nan;101251.13;5010387;28;20669;-66
2023/04/19 05:08:11;;;;;;;6.87;4.87;;;11.30;99.90;;;11.48;nan;101246.50;5012361;28;20628;-66
2023/04/19 05:10:38;;;;;;;6.77;5.23;;;11.30;99.90;;;11.49;nan;101232.53;5014967;28;21106;-67
2023/04/19 05:13:05;;;;;;;6.93;4.87;;;11.40;99.90;;;11.56;nan;101241.63;5007261;28;20695;-66
2023/04/19 05:15:32;;;;;;;7.47;5.20;;;11.40;99.90;;;11.68;nan;101240.84;5004879;28;20657;-66
2023/04/19 05:17:59;;;;;;;5.77;4.00;;;11.50;99.90;;;11.75;nan;101243.88;5013853;28;20660;-66
2023/04/19 05:20:28;;;;;;;8.20;5.00;;;11.60;99.90;;;11.79;nan;101242.75;5013034;28;20639;-67
2023/04/19 05:23:00;;;;;;;5.90;4.40;;;11.60;99.90;;;11.85;nan;101248.41;5002742;28;20618;-65
2023/04/19 05:25:27;;;;;;;9.63;4.80;;;11.70;99.90;;;11.89;nan;101247.25;5004937;28;20664;-66
2023/04/19 05:27:54;;;;;;;4.10;3.70;;;11.70;99.90;;;11.93;nan;101248.72;5014029;28;20633;-66
2023/04/19 05:30:21;;;;;;;7.97;5.30;;;11.80;99.90;;;12.02;nan;101247.25;5012896;28;20700;-67
2023/04/19 05:32:48;;;;;;;3.47;3.03;;;11.80;99.90;;;12.16;nan;101255.00;5009616;28;20626;-66
2023/04/19 05:35:15;;;;;;;4.97;4.20;;;12.00;99.90;;;12.28;nan;101247.16;5004637;28;20665;-66
2023/04/19 05:37:42;;;;;;;4.40;3.60;;;12.10;99.90;;;12.44;nan;101246.91;4994559;28;21027;-66
2023/04/19 05:40:09;;;;;;;4.90;3.93;;;12.30;99.90;;;12.58;nan;101245.94;5013955;28;20617;-66
2023/04/19 05:42:37;;;;;;;7.20;5.37;;;12.40;99.90;;;12.67;nan;101240.06;5014105;28;20633;-66
2023/04/19 05:45:06;;;;;;;5.83;4.70;;;12.50;99.90;;;12.76;nan;101242.84;5013903;28;20649;-66
2023/04/19 05:47:33;;;;;;;5.77;5.10;;;12.60;99.90;;;12.80;nan;101230.41;5012303;28;21008;-65
2023/04/19 05:50:00;;;;;;;8.80;4.60;;;12.70;99.90;;;12.82;nan;101234.56;5013505;28;20629;-66
2023/04/19 05:52:27;;;;;;;4.80;4.17;;;12.70;99.90;;;12.83;nan;101238.84;5014070;28;21238;-66
2023/04/19 05:54:54;;;;;;;6.07;5.43;;;12.70;99.90;;;12.85;nan;101233.50;5012308;28;20737;-65
2023/04/19 05:57:21;;;;;;;5.00;4.57;;;12.70;99.90;;;12.94;nan;101238.09;5008452;28;21038;-66
2023/04/19 05:59:48;;;;;;;6.17;5.00;;;12.80;99.90;;;13.01;nan;101242.75;4996543;28;20698;-66
2023/04/19 06:02:15;;;;;;;6.93;4.63;;;12.90;99.90;;;13.05;nan;101251.28;5013374;28;20630;-67
2023/04/19 06:04:42;;;;;;;5.53;4.80;;;12.90;99.90;;;13.08;nan;101240.56;5004891;28;20726;-66
2023/04/19 06:07:09;;;;;;;5.33;4.83;;;12.90;99.90;;;13.05;nan;101248.66;5006213;28;21201;-64
2023/04/19 06:09:52;;;;;;;5.80;5.10;;;12.90;99.90;;;13.12;nan;101242.84;5006893;28;20634;-64
2023/04/19 06:12:19;;;;;;;7.17;5.53;;;12.90;99.90;;;13.16;nan;101243.50;4998785;28;20629;-65
2023/04/19 06:14:46;;;;;;;11.30;5.50;;;13.00;99.90;;;13.24;nan;101243.75;5005625;28;20665;-66
2023/04/19 06:17:15;;;;;;;6.70;5.20;;;13.10;99.90;;;13.19;nan;101244.09;5004018;28;21013;-66
2023/04/19 06:19:42;;;;;;;9.23;5.80;;;13.10;99.90;;;13.12;nan;101253.34;5004454;28;20665;-67
2023/04/19 06:22:09;;;;;;;6.83;5.20;;;13.00;99.90;;;13.11;nan;101246.44;5010438;28;20996;-66
2023/04/19 06:24:36;;;;;;;6.87;5.17;;;13.00;99.90;;;13.14;nan;101246.19;5004063;28;20661;-66
2023/04/19 06:27:03;;;;;;;7.43;4.77;;;13.00;99.90;;;13.20;nan;101247.56;5012273;28;20690;-64
2023/04/19 06:29:30;;;;;;;9.40;5.40;;;13.00;99.90;;;13.28;nan;101244.34;5012419;28;20643;-66
2023/04/19 06:31:57;;;;;;;8.87;5.73;;;13.10;99.90;;;13.29;nan;101239.00;5013256;28;21222;-66
2023/04/19 06:34:24;;;;;;;5.20;4.10;;;13.10;99.90;;;13.36;nan;101244.63;5010483;28;21096;-66
2023/04/19 06:36:51;;;;;;;5.80;4.43;;;13.20;99.90;;;13.44;nan;101239.69;4998700;28;20640;-67
2023/04/19 06:39:18;;;;;;;5.77;5.20;;;13.30;99.90;;;13.56;nan;101236.97;5003077;28;20672;-65
2023/04/19 06:41:45;;;;;;;6.13;4.80;;;13.40;99.90;;;13.81;nan;101236.78;5003283;28;20610;-67
2023/04/19 06:44:12;;;;;;;5.53;4.40;;;13.60;99.90;;;14.16;nan;101247.19;5004944;28;20679;-66
2023/04/19 06:46:39;;;;;;;6.10;4.33;;;13.90;99.90;;;14.47;nan;101237.81;5003236;28;20668;-67
2023/04/19 06:49:06;;;;;;;5.23;4.70;;;14.20;99.90;;;14.87;nan;101233.69;5003534;28;21036;-66
2023/04/19 06:51:33;;;;;;;7.10;5.00;;;14.60;99.90;;;15.28;nan;101231.19;5007666;28;20645;-66
2023/04/19 06:54:00;;;;;;;5.20;4.63;;;15.00;99.90;;;15.56;nan;101237.66;5004419;28;20637;-65
2023/04/19 06:56:46;;;;;;;6.80;5.10;;;15.40;99.90;;;15.66;nan;101238.56;5003215;28;20711;-67
2023/04/19 06:59:18;;;;;;;6.80;5.40;;;15.50;99.90;;;15.62;nan;101237.16;5017082;28;20665;-66
2023/04/19 07:01:46;;;;;;;6.13;5.07;;;15.50;99.90;;;15.43;nan;101237.00;5008003;28;21197;-66
2023/04/19 07:04:13;;;;;;;6.53;4.83;;;15.30;99.90;;;15.06;nan;101249.66;5008289;28;21205;-66
2023/04/19 07:06:41;;;;;;;7.77;5.13;;;15.00;99.90;;;15.08;nan;101239.00;5025969;28;20642;-68
2023/04/19 07:09:08;;;;;;;5.70;5.10;;;15.00;99.90;;;15.44;nan;101236.88;5010654;28;20675;-65
2023/04/19 07:11:35;;;;;;;4.40;3.70;;;15.30;99.90;;;15.65;nan;101236.91;5012591;28;20702;-66
2023/04/19 07:14:02;;;;;;;7.17;5.47;;;15.50;99.90;;;15.89;nan;101234.81;5003799;28;21000;-66
2023/04/19 07:16:29;;;;;;;6.07;5.33;;;15.70;99.90;;;16.13;nan;101221.38;5011638;28;20664;-66
2023/04/19 07:18:56;;;;;;;5.40;4.90;;;15.90;99.90;;;16.41;nan;101231.19;5011964;28;21027;-65
2023/04/19 07:21:29;;;;;;;6.40;4.90;;;16.20;99.90;;;16.44;nan;101225.66;5011585;28;21295;-66
2023/04/19 07:23:56;;;;;;;6.23;5.23;;;16.30;99.90;;;16.38;nan;101226.19;4994886;28;20641;-67
2023/04/19 07:26:22;;;;;;;6.13;4.90;;;16.30;99.90;;;16.29;nan;101227.00;5010190;28;20704;-66
2023/04/19 07:28:50;;;;;;;5.77;5.10;;;16.10;99.90;;;16.06;nan;101226.31;4999327;28;20688;-66
2023/04/19 07:31:17;;;;;;;9.43;6.80;;;16.00;99.90;;;15.78;nan;101219.09;5011154;28;20621;-66
2023/04/19 07:33:44;;;;;;;9.20;4.70;;;15.70;99.90;;;15.60;nan;101220.66;5008414;28;20631;-66
2023/04/19 07:36:11;;;;;;;6.70;6.10;;;15.50;99.90;;;15.39;nan;101212.72;5008166;28;20661;-65
2023/04/19 07:38:39;;;;;;;4.87;3.40;;;15.40;99.90;;;15.20;nan;101223.09;5010687;28;20653;-66
2023/04/19 07:41:06;;;;;;;5.27;4.73;;;15.20;99.90;;;14.98;nan;101220.53;5011066;28;21133;-66
2023/04/19 07:43:33;;;;;;;7.93;6.00;;;14.90;99.90;;;14.91;nan;101213.25;5011812;28;20634;-65
2023/04/19 07:46:00;;;;;;;6.60;6.00;;;14.80;99.90;;;14.76;nan;101210.06;5012063;28;20645;-66
2023/04/19 07:48:27;;;;;;;5.73;5.00;;;14.70;99.90;;;14.68;nan;101217.72;5011278;28;20629;-64
2023/04/19 07:50:54;;;;;;;6.60;5.60;;;14.60;99.90;;;14.48;nan;101221.94;5010247;28;20633;-68
2023/04/19 07:53:21;;;;;;;7.50;5.60;;;14.40;99.90;;;14.40;nan;101218.25;5002906;28;20998;-66
2023/04/19 07:55:48;;;;;;;9.60;6.57;;;14.30;99.90;;;14.33;nan;101228.38;5009020;28;20668;-66
2023/04/19 07:58:15;;;;;;;6.80;5.33;;;14.20;99.90;;;14.21;nan;101212.72;5002760;28;20629;-65
2023/04/19 08:00:42;;;;;;;7.37;5.60;;;14.10;99.90;;;14.14;nan;101219.44;5007860;28;20641;-66
2023/04/19 08:03:09;;;;;;;8.77;3.93;;;14.00;99.90;;;14.02;nan;101229.91;5001983;28;20637;-65
2023/04/19 08:05:36;;;;;;;8.50;6.00;;;13.90;99.90;;;13.89;nan;101228.31;5031046;22;20738;-69
2023/04/19 08:08:04;;;;;;;9.50;6.60;;;13.80;99.90;;;13.81;nan;101215.81;5025559;28;20633;-67
2023/04/19 08:10:31;;;;;;;8.57;6.40;;;13.70;99.90;;;13.72;nan;101210.41;5021044;28;21254;-66
2023/04/19 08:12:58;;;;;;;7.00;6.30;;;13.60;99.90;;;13.70;nan;101207.06;5030491;28;21168;-67
2023/04/19 08:15:33;;;;;;;8.93;6.60;;;13.60;99.90;;;13.72;nan;101210.41;5027212;28;20656;-65
2023/04/19 08:18:03;;;;;;;7.00;5.37;;;13.50;99.90;;;13.78;nan;101208.16;5008910;28;20614;-66
2023/04/19 08:20:31;;;;;;;8.60;6.63;;;13.60;99.90;;;13.81;nan;101205.31;5001116;28;20867;-67
2023/04/19 08:22:59;;;;;;;9.47;7.27;;;13.70;99.90;;;13.85;nan;101195.41;5030927;28;20628;-67
2023/04/19 08:25:33;;;;;;;8.43;6.60;;;13.70;99.90;;;13.82;nan;101200.91;5010038;28;20661;-67
2023/04/19 08:28:01;;;;;;;11.53;7.43;;;13.70;99.90;;;13.84;nan;101205.06;5007002;28;20642;-66
2023/04/19 08:30:27;;;;;;;8.30;7.00;;;13.70;99.90;;;13.88;nan;101192.56;5003408;28;21213;-66
2023/04/19 08:32:55;;;;;;;11.10;6.63;;;13.70;99.90;;;13.91;nan;101201.03;5009971;28;20691;-66
2023/04/19 08:35:24;;;;;;;8.33;6.40;;;13.80;99.90;;;13.91;nan;101187.91;5003532;28;20662;-64
2023/04/19 08:37:51;;;;;;;9.33;7.40;;;13.70;99.90;;;13.96;nan;101206.78;5008824;28;20626;-66
2023/04/19 08:40:18;;;;;;;8.73;7.83;;;13.80;99.90;;;13.97;nan;101211.03;5008157;28;20657;-65
2023/04/19 08:42:45;;;;;;;9.70;7.57;;;13.80;99.90;;;14.02;nan;101198.41;5005851;28;20691;-67
2023/04/19 08:45:15;;;;;;;9.17;7.33;;;13.80;99.90;;;14.08;nan;101193.63;5009055;28;20691;-63
2023/04/19 08:47:56;;;;;;;10.50;7.33;;;13.90;99.90;;;14.10;nan;101197.00;5010907;28;21211;-65
2023/04/19 08:50:28;;;;;;;10.40;7.33;;;13.90;99.90;;;14.14;nan;101190.56;5005145;28;20696;-65
2023/04/19 08:53:00;;;;;;;3.43;3.00;;;14.00;99.90;;;14.13;nan;101181.84;5010186;28;20586;-65
2023/04/19 08:55:42;;;;;;;8.87;6.20;;;14.00;99.90;;;14.16;nan;101188.66;5014388;28;20651;-64
2023/04/19 08:58:28;;;;;;;9.60;8.07;;;14.00;99.90;;;14.17;nan;101185.06;5001622;28;20633;-66
2023/04/19 09:01:12;;;;;;;9.87;8.33;;;14.00;99.90;;;14.13;nan;101173.13;5009688;28;20690;-65
2023/04/19 09:03:52;;;;;;;9.67;8.60;;;14.00;99.90;;;14.09;nan;101171.69;4999028;28;20699;-65
2023/04/19 09:06:40;;;;;;;10.27;6.60;;;14.00;99.90;;;14.17;nan;101183.28;5005116;28;20669;-65
2023/04/19 09:09:20;;;;;;;9.27;6.27;;;14.00;99.90;;;14.29;nan;101178.91;4989135;28;20637;-64
2023/04/19 09:11:50;;;;;;;7.60;6.73;;;14.10;99.90;;;14.41;nan;101170.03;5009572;28;20629;-66
2023/04/19 09:14:19;;;;;;;9.57;7.53;;;14.20;99.90;;;14.53;nan;101172.53;5014172;28;21195;-65
2023/04/19 09:16:46;;;;;;;8.70;6.83;;;14.30;99.90;;;14.69;nan;101166.88;5023238;28;20668;-63
2023/04/19 09:19:15;;;;;;;8.27;6.60;;;14.50;99.90;;;14.79;nan;101162.56;5003294;28;20688;-66
2023/04/19 09:21:52;;;;;;;9.07;7.40;;;14.60;99.90;;;14.97;nan;101166.28;5008892;28;20633;-65
2023/04/19 09:24:36;;;;;;;11.77;7.80;;;14.80;99.90;;;15.15;nan;101166.59;5008567;28;20618;-67
2023/04/19 09:27:35;;;;;;;7.40;6.60;;;14.90;99.90;;;15.44;nan;101155.34;5009375;28;21038;-67
2023/04/19 09:30:04;;;;;;;9.27;7.43;;;15.20;99.90;;;15.57;nan;101154.34;5007405;28;20645;-67
2023/04/19 09:32:46;;;;;;;10.37;8.10;;;15.40;99.90;;;15.48;nan;101156.75;5011230;28;21063;-67
2023/04/19 09:35:13;;;;;;;7.57;6.53;;;15.40;99.90;;;15.32;nan;101158.13;5006404;28;20670;-66
2023/04/19 09:37:40;;;;;;;8.73;6.10;;;15.20;99.90;;;15.31;nan;101154.66;5005357;28;20705;-64
2023/04/19 09:40:24;;;;;;;10.57;7.53;;;15.20;99.90;;;15.41;nan;101152.97;5009228;28;20683;-64
2023/04/19 09:42:51;;;;;;;7.63;6.53;;;15.30;99.90;;;15.58;nan;101150.72;5005777;28;20639;-64
2023/04/19 09:45:21;;;;;;;8.60;7.03;;;15.40;99.90;;;15.71;nan;101143.47;5008733;28;21259;-67
2023/04/19 09:48:08;;;;;;;8.30;6.03;;;15.50;99.90;;;15.58;nan;101142.84;5010490;28;20636;-64
2023/04/19 09:50:52;;;;;;;8.57;6.30;;;15.50;99.90;;;15.33;nan;101142.22;5004437;28;20649;-67
2023/04/19 09:53:27;;;;;;;7.03;6.27;;;15.30;99.90;;;15.19;nan;101142.56;5028552;28;20709;-66
2023/04/19 09:55:54;;;;;;;7.80;6.60;;;15.10;99.90;;;15.11;nan;101142.34;5020117;28;20657;-65
2023/04/19 09:58:27;;;;;;;7.57;6.77;;;15.00;99.90;;;15.04;nan;101146.44;5026465;28;20672;-67
2023/04/19 10:01:00;;;;;;;9.17;5.07;;;14.90;99.90;;;15.06;nan;101134.00;5020875;28;20965;-65
2023/04/19 10:03:39;;;;;;;8.90;5.70;;;14.90;99.90;;;15.02;nan;101143.09;5029514;28;21198;-67
2023/04/19 10:06:07;;;;;;;6.63;5.50;;;14.90;99.90;;;15.04;nan;101135.94;5003962;28;20721;-65
2023/04/19 10:08:40;;;;;;;6.77;5.70;;;14.90;99.90;;;14.97;nan;101137.38;5011209;28;20668;-66
2023/04/19 10:11:09;;;;;;;2.43;2.23;;;14.80;99.90;;;14.84;nan;101149.03;5012736;28;20669;-65
2023/04/19 10:13:36;;;;;;;8.10;5.90;;;14.80;99.90;;;14.61;nan;101135.97;5011666;28;20621;-66
2023/04/19 10:16:03;;;;;;;8.33;5.13;;;14.60;99.90;;;14.54;nan;101147.09;5012591;28;20663;-65
2023/04/19 10:18:44;;;;;;;8.43;6.40;;;14.40;99.90;;;14.48;nan;101135.28;5012138;28;20747;-65
2023/04/19 10:21:12;;;;;;;7.07;5.40;;;14.30;99.90;;;14.38;nan;101125.63;5012486;28;20632;-66
2023/04/19 10:23:39;;;;;;;7.13;5.97;;;14.30;99.90;;;14.27;nan;101126.47;5027772;28;20699;-66
2023/04/19 10:26:06;;;;;;;8.30;6.33;;;14.20;99.90;;;14.28;nan;101135.19;5019667;28;20668;-65
2023/04/19 10:28:35;;;;;;;9.00;5.43;;;14.10;99.90;;;14.31;nan;101134.97;5011646;28;23098;-65
2023/04/19 10:31:04;;;;;;;7.73;7.03;;;14.10;99.90;;;14.37;nan;101122.22;5012079;28;21220;-65